sensor_id;sensor_type;location;lat;lon;timestamp;P1;durP1;ratioP1;P2;durP2;ratioP2
22764;SDS011;11549;50.852;3.816;2022-12-29T00:01:21;3.15;;;1.67;;
22764;SDS011;11549;50.852;3.816;2022-12-29T00:03:50;3.00;;;1.60;;
22764;SDS011;11549;50.852;3.816;2022-12-29T00:06:20;3.00;;;1.20;;
22764;SDS011;11549;50.852;3.816;2022-12-29T00:08:48;3.47;;;1.30;;
22764;SDS011;11549;50.852;3.816;2022-12-29T00:11:17;4.65;;;1.40;;
22764;SDS011;11549;50.852;3.816;2022-12-29T00:13:47;2.58;;;1.33;;
22764;SDS011;11549;50.852;3.816;2022-12-29T00:16:35;3.22;;;1.40;;
22764;SDS011;11549;50.852;3.816;2022-12-29T00:19:04;3.38;;;1.30;;
22764;SDS011;11549;50.852;3.816;2022-12-29T00:21:54;3.65;;;1.30;;
22764;SDS011;11549;50.852;3.816;2022-12-29T00:24:41;3.40;;;0.98;;
22764;SDS011;11549;50.852;3.816;2022-12-29T00:27:27;4.07;;;1.20;;
22764;SDS011;11549;50.852;3.816;2022-12-29T00:30:15;3.65;;;1.05;;
22764;SDS011;11549;50.852;3.816;2022-12-29T00:33:07;4.78;;;1.20;;
22764;SDS011;11549;50.852;3.816;2022-12-29T00:35:55;4.80;;;1.20;;
22764;SDS011;11549;50.852;3.816;2022-12-29T00:38:30;3.90;;;1.33;;
22764;SDS011;11549;50.852;3.816;2022-12-29T00:41:17;4.30;;;1.13;;
22764;SDS011;11549;50.852;3.816;2022-12-29T00:44:03;4.18;;;1.30;;
22764;SDS011;11549;50.852;3.816;2022-12-29T00:46:37;4.35;;;1.30;;
22764;SDS011;11549;50.852;3.816;2022-12-29T00:49:05;5.45;;;1.10;;
22764;SDS011;11549;50.852;3.816;2022-12-29T00:51:53;4.68;;;1.33;;
22764;SDS011;11549;50.852;3.816;2022-12-29T00:54:23;3.53;;;1.00;;
22764;SDS011;11549;50.852;3.816;2022-12-29T00:56:52;7.80;;;1.30;;
22764;SDS011;11549;50.852;3.816;2022-12-29T00:59:21;5.78;;;1.30;;
22764;SDS011;11549;50.852;3.816;2022-12-29T01:01:53;7.50;;;1.40;;
22764;SDS011;11549;50.852;3.816;2022-12-29T01:04:24;5.07;;;1.35;;
22764;SDS011;11549;50.852;3.816;2022-12-29T01:06:53;6.18;;;1.30;;
22764;SDS011;11549;50.852;3.816;2022-12-29T01:09:22;5.00;;;1.13;;
22764;SDS011;11549;50.852;3.816;2022-12-29T01:12:09;6.47;;;1.20;;
22764;SDS011;11549;50.852;3.816;2022-12-29T01:14:39;8.23;;;1.55;;
22764;SDS011;11549;50.852;3.816;2022-12-29T01:17:07;5.13;;;1.38;;
22764;SDS011;11549;50.852;3.816;2022-12-29T01:19:36;4.25;;;1.00;;
22764;SDS011;11549;50.852;3.816;2022-12-29T01:22:04;6.80;;;1.52;;
22764;SDS011;11549;50.852;3.816;2022-12-29T01:24:34;7.03;;;1.58;;
22764;SDS011;11549;50.852;3.816;2022-12-29T01:27:03;5.95;;;1.30;;
22764;SDS011;11549;50.852;3.816;2022-12-29T01:29:32;6.28;;;1.33;;
22764;SDS011;11549;50.852;3.816;2022-12-29T01:32:01;5.43;;;1.27;;
22764;SDS011;11549;50.852;3.816;2022-12-29T01:34:29;5.15;;;1.20;;
22764;SDS011;11549;50.852;3.816;2022-12-29T01:36:57;5.97;;;1.08;;
22764;SDS011;11549;50.852;3.816;2022-12-29T01:39:26;6.38;;;1.20;;
22764;SDS011;11549;50.852;3.816;2022-12-29T01:41:55;5.45;;;1.20;;
22764;SDS011;11549;50.852;3.816;2022-12-29T01:47:21;3.28;;;1.10;;
22764;SDS011;11549;50.852;3.816;2022-12-29T01:49:54;3.28;;;1.00;;
22764;SDS011;11549;50.852;3.816;2022-12-29T01:52:26;5.20;;;1.15;;
22764;SDS011;11549;50.852;3.816;2022-12-29T01:54:56;3.63;;;1.20;;
22764;SDS011;11549;50.852;3.816;2022-12-29T01:57:27;3.45;;;0.95;;
22764;SDS011;11549;50.852;3.816;2022-12-29T02:00:00;4.65;;;1.52;;
22764;SDS011;11549;50.852;3.816;2022-12-29T02:02:31;6.40;;;1.10;;
22764;SDS011;11549;50.852;3.816;2022-12-29T02:04:59;7.45;;;1.10;;
22764;SDS011;11549;50.852;3.816;2022-12-29T02:07:33;5.90;;;0.90;;
22764;SDS011;11549;50.852;3.816;2022-12-29T02:10:02;5.18;;;1.20;;
22764;SDS011;11549;50.852;3.816;2022-12-29T02:12:32;5.10;;;0.90;;
22764;SDS011;11549;50.852;3.816;2022-12-29T02:15:01;3.20;;;1.15;;
22764;SDS011;11549;50.852;3.816;2022-12-29T02:17:35;6.15;;;1.30;;
22764;SDS011;11549;50.852;3.816;2022-12-29T02:20:26;4.00;;;0.95;;
22764;SDS011;11549;50.852;3.816;2022-12-29T02:26:37;10.98;;;1.50;;
22764;SDS011;11549;50.852;3.816;2022-12-29T02:29:32;4.10;;;0.88;;
22764;SDS011;11549;50.852;3.816;2022-12-29T02:32:28;5.05;;;1.58;;
22764;SDS011;11549;50.852;3.816;2022-12-29T02:35:05;4.40;;;1.00;;
22764;SDS011;11549;50.852;3.816;2022-12-29T02:37:40;9.10;;;1.10;;
22764;SDS011;11549;50.852;3.816;2022-12-29T02:40:17;5.72;;;0.90;;
22764;SDS011;11549;50.852;3.816;2022-12-29T02:42:52;5.15;;;1.00;;
22764;SDS011;11549;50.852;3.816;2022-12-29T02:45:30;6.78;;;1.40;;
22764;SDS011;11549;50.852;3.816;2022-12-29T02:48:07;8.00;;;1.08;;
22764;SDS011;11549;50.852;3.816;2022-12-29T02:50:47;4.70;;;0.90;;
22764;SDS011;11549;50.852;3.816;2022-12-29T02:53:19;7.07;;;1.20;;
22764;SDS011;11549;50.852;3.816;2022-12-29T02:56:10;8.15;;;1.30;;
22764;SDS011;11549;50.852;3.816;2022-12-29T02:58:37;4.63;;;0.80;;
22764;SDS011;11549;50.852;3.816;2022-12-29T03:01:16;7.47;;;1.00;;
22764;SDS011;11549;50.852;3.816;2022-12-29T03:04:15;8.93;;;1.77;;
22764;SDS011;11549;50.852;3.816;2022-12-29T03:06:56;6.90;;;1.00;;
22764;SDS011;11549;50.852;3.816;2022-12-29T03:09:35;4.55;;;1.00;;
22764;SDS011;11549;50.852;3.816;2022-12-29T03:12:12;5.82;;;1.45;;
22764;SDS011;11549;50.852;3.816;2022-12-29T03:14:48;6.25;;;1.00;;
22764;SDS011;11549;50.852;3.816;2022-12-29T03:17:45;7.68;;;1.35;;
22764;SDS011;11549;50.852;3.816;2022-12-29T03:20:20;5.75;;;1.02;;
22764;SDS011;11549;50.852;3.816;2022-12-29T03:22:53;6.95;;;1.00;;
22764;SDS011;11549;50.852;3.816;2022-12-29T03:25:28;8.77;;;1.30;;
22764;SDS011;11549;50.852;3.816;2022-12-29T03:28:00;8.70;;;1.27;;
22764;SDS011;11549;50.852;3.816;2022-12-29T03:30:30;6.57;;;1.20;;
22764;SDS011;11549;50.852;3.816;2022-12-29T03:33:02;8.18;;;1.23;;
22764;SDS011;11549;50.852;3.816;2022-12-29T03:35:37;6.90;;;1.13;;
22764;SDS011;11549;50.852;3.816;2022-12-29T03:38:09;6.70;;;1.20;;
22764;SDS011;11549;50.852;3.816;2022-12-29T03:40:44;7.65;;;1.35;;
22764;SDS011;11549;50.852;3.816;2022-12-29T03:43:16;8.77;;;1.42;;
22764;SDS011;11549;50.852;3.816;2022-12-29T03:45:45;8.10;;;1.48;;
22764;SDS011;11549;50.852;3.816;2022-12-29T03:48:13;9.68;;;1.20;;
22764;SDS011;11549;50.852;3.816;2022-12-29T03:50:44;6.38;;;1.27;;
22764;SDS011;11549;50.852;3.816;2022-12-29T03:53:12;10.43;;;1.27;;
22764;SDS011;11549;50.852;3.816;2022-12-29T03:55:40;11.05;;;1.30;;
22764;SDS011;11549;50.852;3.816;2022-12-29T03:58:09;8.70;;;1.77;;
22764;SDS011;11549;50.852;3.816;2022-12-29T04:00:37;7.38;;;1.45;;
22764;SDS011;11549;50.852;3.816;2022-12-29T04:03:06;7.35;;;1.02;;
22764;SDS011;11549;50.852;3.816;2022-12-29T04:05:35;8.20;;;1.30;;
22764;SDS011;11549;50.852;3.816;2022-12-29T04:08:05;7.93;;;1.13;;
22764;SDS011;11549;50.852;3.816;2022-12-29T04:10:33;7.75;;;1.30;;
22764;SDS011;11549;50.852;3.816;2022-12-29T04:13:02;7.32;;;1.20;;
22764;SDS011;11549;50.852;3.816;2022-12-29T04:15:30;8.02;;;1.35;;
22764;SDS011;11549;50.852;3.816;2022-12-29T04:17:59;10.18;;;1.30;;
22764;SDS011;11549;50.852;3.816;2022-12-29T04:20:27;6.78;;;1.48;;
22764;SDS011;11549;50.852;3.816;2022-12-29T04:23:14;6.72;;;1.20;;
22764;SDS011;11549;50.852;3.816;2022-12-29T04:25:44;8.48;;;1.17;;
22764;SDS011;11549;50.852;3.816;2022-12-29T04:28:13;6.07;;;1.00;;
22764;SDS011;11549;50.852;3.816;2022-12-29T04:30:44;7.65;;;1.40;;
22764;SDS011;11549;50.852;3.816;2022-12-29T04:33:13;7.57;;;0.95;;
22764;SDS011;11549;50.852;3.816;2022-12-29T04:35:44;8.23;;;1.20;;
22764;SDS011;11549;50.852;3.816;2022-12-29T04:38:12;7.20;;;1.23;;
22764;SDS011;11549;50.852;3.816;2022-12-29T04:40:44;9.75;;;1.20;;
22764;SDS011;11549;50.852;3.816;2022-12-29T04:43:12;5.97;;;1.00;;
22764;SDS011;11549;50.852;3.816;2022-12-29T04:45:43;6.90;;;1.20;;
22764;SDS011;11549;50.852;3.816;2022-12-29T04:48:12;7.63;;;1.10;;
22764;SDS011;11549;50.852;3.816;2022-12-29T04:50:42;6.40;;;1.08;;
22764;SDS011;11549;50.852;3.816;2022-12-29T04:53:10;5.70;;;1.15;;
22764;SDS011;11549;50.852;3.816;2022-12-29T04:55:40;5.07;;;1.05;;
22764;SDS011;11549;50.852;3.816;2022-12-29T04:58:09;8.65;;;1.40;;
22764;SDS011;11549;50.852;3.816;2022-12-29T05:00:42;5.75;;;1.00;;
22764;SDS011;11549;50.852;3.816;2022-12-29T05:03:11;8.48;;;1.27;;
22764;SDS011;11549;50.852;3.816;2022-12-29T05:05:40;11.45;;;1.55;;
22764;SDS011;11549;50.852;3.816;2022-12-29T05:08:09;6.95;;;1.17;;
22764;SDS011;11549;50.852;3.816;2022-12-29T05:10:37;6.60;;;1.23;;
22764;SDS011;11549;50.852;3.816;2022-12-29T05:13:07;6.45;;;1.00;;
22764;SDS011;11549;50.852;3.816;2022-12-29T05:15:35;7.88;;;1.05;;
22764;SDS011;11549;50.852;3.816;2022-12-29T05:18:04;8.35;;;1.40;;
22764;SDS011;11549;50.852;3.816;2022-12-29T05:20:32;8.07;;;1.35;;
22764;SDS011;11549;50.852;3.816;2022-12-29T05:23:01;6.93;;;1.35;;
22764;SDS011;11549;50.852;3.816;2022-12-29T05:25:29;6.35;;;1.63;;
22764;SDS011;11549;50.852;3.816;2022-12-29T05:27:59;10.75;;;1.90;;
22764;SDS011;11549;50.852;3.816;2022-12-29T05:30:27;8.57;;;1.42;;
22764;SDS011;11549;50.852;3.816;2022-12-29T05:32:56;12.32;;;1.90;;
22764;SDS011;11549;50.852;3.816;2022-12-29T05:35:24;9.00;;;1.60;;
22764;SDS011;11549;50.852;3.816;2022-12-29T05:37:52;12.93;;;1.80;;
22764;SDS011;11549;50.852;3.816;2022-12-29T05:40:21;8.25;;;2.33;;
22764;SDS011;11549;50.852;3.816;2022-12-29T05:42:49;10.52;;;1.63;;
22764;SDS011;11549;50.852;3.816;2022-12-29T05:45:19;9.13;;;2.03;;
22764;SDS011;11549;50.852;3.816;2022-12-29T05:47:47;10.05;;;1.60;;
22764;SDS011;11549;50.852;3.816;2022-12-29T05:50:15;10.30;;;1.58;;
22764;SDS011;11549;50.852;3.816;2022-12-29T05:52:44;10.57;;;2.03;;
22764;SDS011;11549;50.852;3.816;2022-12-29T05:55:12;13.30;;;1.92;;
22764;SDS011;11549;50.852;3.816;2022-12-29T05:57:41;10.50;;;2.00;;
22764;SDS011;11549;50.852;3.816;2022-12-29T06:00:09;12.80;;;2.17;;
22764;SDS011;11549;50.852;3.816;2022-12-29T06:02:40;11.50;;;2.25;;
22764;SDS011;11549;50.852;3.816;2022-12-29T06:05:09;11.57;;;2.47;;
22764;SDS011;11549;50.852;3.816;2022-12-29T06:07:38;14.27;;;3.05;;
22764;SDS011;11549;50.852;3.816;2022-12-29T06:10:07;10.60;;;1.70;;
22764;SDS011;11549;50.852;3.816;2022-12-29T06:12:36;9.85;;;1.98;;
22764;SDS011;11549;50.852;3.816;2022-12-29T06:15:04;12.38;;;1.98;;
22764;SDS011;11549;50.852;3.816;2022-12-29T06:17:34;9.00;;;1.77;;
22764;SDS011;11549;50.852;3.816;2022-12-29T06:20:04;12.15;;;2.60;;
22764;SDS011;11549;50.852;3.816;2022-12-29T06:22:34;12.43;;;2.17;;
22764;SDS011;11549;50.852;3.816;2022-12-29T06:25:02;16.92;;;2.60;;
22764;SDS011;11549;50.852;3.816;2022-12-29T06:27:32;15.52;;;2.17;;
22764;SDS011;11549;50.852;3.816;2022-12-29T06:30:00;11.05;;;1.98;;
22764;SDS011;11549;50.852;3.816;2022-12-29T06:32:29;14.35;;;2.40;;
22764;SDS011;11549;50.852;3.816;2022-12-29T06:34:57;13.32;;;2.70;;
22764;SDS011;11549;50.852;3.816;2022-12-29T06:37:27;15.68;;;2.33;;
22764;SDS011;11549;50.852;3.816;2022-12-29T06:39:55;12.15;;;2.08;;
22764;SDS011;11549;50.852;3.816;2022-12-29T06:42:24;10.07;;;2.13;;
22764;SDS011;11549;50.852;3.816;2022-12-29T06:44:52;11.18;;;2.10;;
22764;SDS011;11549;50.852;3.816;2022-12-29T06:47:20;9.80;;;1.98;;
22764;SDS011;11549;50.852;3.816;2022-12-29T06:49:49;10.40;;;2.00;;
22764;SDS011;11549;50.852;3.816;2022-12-29T06:52:17;13.82;;;2.22;;
22764;SDS011;11549;50.852;3.816;2022-12-29T06:54:47;10.48;;;1.90;;
22764;SDS011;11549;50.852;3.816;2022-12-29T06:57:15;10.85;;;1.90;;
22764;SDS011;11549;50.852;3.816;2022-12-29T06:59:43;12.48;;;2.63;;
22764;SDS011;11549;50.852;3.816;2022-12-29T07:02:12;11.35;;;2.22;;
22764;SDS011;11549;50.852;3.816;2022-12-29T07:04:41;13.32;;;2.95;;
22764;SDS011;11549;50.852;3.816;2022-12-29T07:07:10;14.15;;;3.47;;
22764;SDS011;11549;50.852;3.816;2022-12-29T07:09:38;18.58;;;3.15;;
22764;SDS011;11549;50.852;3.816;2022-12-29T07:12:08;11.70;;;2.67;;
22764;SDS011;11549;50.852;3.816;2022-12-29T07:14:36;10.00;;;2.30;;
22764;SDS011;11549;50.852;3.816;2022-12-29T07:17:09;14.55;;;3.28;;
22764;SDS011;11549;50.852;3.816;2022-12-29T07:19:37;13.20;;;3.08;;
22764;SDS011;11549;50.852;3.816;2022-12-29T07:22:05;11.88;;;2.10;;
22764;SDS011;11549;50.852;3.816;2022-12-29T07:24:34;14.02;;;2.60;;
22764;SDS011;11549;50.852;3.816;2022-12-29T07:27:02;11.15;;;1.90;;
22764;SDS011;11549;50.852;3.816;2022-12-29T07:29:32;11.60;;;2.15;;
22764;SDS011;11549;50.852;3.816;2022-12-29T07:32:00;9.00;;;2.08;;
22764;SDS011;11549;50.852;3.816;2022-12-29T07:34:29;15.40;;;2.53;;
22764;SDS011;11549;50.852;3.816;2022-12-29T07:36:57;15.02;;;2.08;;
22764;SDS011;11549;50.852;3.816;2022-12-29T07:39:25;13.18;;;2.55;;
22764;SDS011;11549;50.852;3.816;2022-12-29T07:41:53;8.07;;;2.00;;
22764;SDS011;11549;50.852;3.816;2022-12-29T07:44:30;15.27;;;2.17;;
22764;SDS011;11549;50.852;3.816;2022-12-29T07:46:59;10.55;;;1.80;;
22764;SDS011;11549;50.852;3.816;2022-12-29T07:49:28;10.05;;;1.80;;
22764;SDS011;11549;50.852;3.816;2022-12-29T07:51:56;14.85;;;2.17;;
22764;SDS011;11549;50.852;3.816;2022-12-29T07:54:24;17.00;;;2.33;;
22764;SDS011;11549;50.852;3.816;2022-12-29T07:56:52;13.15;;;2.08;;
22764;SDS011;11549;50.852;3.816;2022-12-29T07:59:21;13.10;;;2.70;;
22764;SDS011;11549;50.852;3.816;2022-12-29T08:01:51;13.38;;;2.20;;
22764;SDS011;11549;50.852;3.816;2022-12-29T08:04:20;14.48;;;1.98;;
22764;SDS011;11549;50.852;3.816;2022-12-29T08:06:49;11.55;;;2.05;;
22764;SDS011;11549;50.852;3.816;2022-12-29T08:09:18;13.00;;;2.15;;
22764;SDS011;11549;50.852;3.816;2022-12-29T08:11:50;12.88;;;2.33;;
22764;SDS011;11549;50.852;3.816;2022-12-29T08:14:18;13.27;;;2.13;;
22764;SDS011;11549;50.852;3.816;2022-12-29T08:16:46;13.52;;;2.60;;
22764;SDS011;11549;50.852;3.816;2022-12-29T08:19:16;14.98;;;2.47;;
22764;SDS011;11549;50.852;3.816;2022-12-29T08:21:45;9.20;;;1.85;;
22764;SDS011;11549;50.852;3.816;2022-12-29T08:24:13;11.80;;;2.38;;
22764;SDS011;11549;50.852;3.816;2022-12-29T08:26:42;11.20;;;2.10;;
22764;SDS011;11549;50.852;3.816;2022-12-29T08:29:10;11.35;;;1.90;;
22764;SDS011;11549;50.852;3.816;2022-12-29T08:31:38;9.93;;;2.30;;
22764;SDS011;11549;50.852;3.816;2022-12-29T08:34:07;14.93;;;2.30;;
22764;SDS011;11549;50.852;3.816;2022-12-29T08:36:36;18.85;;;2.78;;
22764;SDS011;11549;50.852;3.816;2022-12-29T08:39:04;15.38;;;2.63;;
22764;SDS011;11549;50.852;3.816;2022-12-29T08:41:33;13.93;;;2.75;;
22764;SDS011;11549;50.852;3.816;2022-12-29T08:44:01;16.38;;;2.55;;
22764;SDS011;11549;50.852;3.816;2022-12-29T08:46:30;9.43;;;2.22;;
22764;SDS011;11549;50.852;3.816;2022-12-29T08:48:58;11.95;;;2.38;;
22764;SDS011;11549;50.852;3.816;2022-12-29T08:51:27;17.70;;;2.35;;
22764;SDS011;11549;50.852;3.816;2022-12-29T08:53:56;15.45;;;2.72;;
22764;SDS011;11549;50.852;3.816;2022-12-29T08:56:25;15.27;;;2.67;;
22764;SDS011;11549;50.852;3.816;2022-12-29T08:58:54;17.30;;;2.92;;
22764;SDS011;11549;50.852;3.816;2022-12-29T09:01:22;15.65;;;2.15;;
22764;SDS011;11549;50.852;3.816;2022-12-29T09:03:52;21.65;;;2.70;;
22764;SDS011;11549;50.852;3.816;2022-12-29T09:06:41;14.45;;;2.40;;
22764;SDS011;11549;50.852;3.816;2022-12-29T09:09:11;17.42;;;2.80;;
22764;SDS011;11549;50.852;3.816;2022-12-29T09:11:41;15.45;;;2.85;;
22764;SDS011;11549;50.852;3.816;2022-12-29T09:14:10;20.55;;;2.67;;
22764;SDS011;11549;50.852;3.816;2022-12-29T09:16:38;19.35;;;3.45;;
22764;SDS011;11549;50.852;3.816;2022-12-29T09:19:25;17.05;;;2.72;;
22764;SDS011;11549;50.852;3.816;2022-12-29T09:21:53;18.80;;;2.67;;
22764;SDS011;11549;50.852;3.816;2022-12-29T09:24:23;15.13;;;2.55;;
22764;SDS011;11549;50.852;3.816;2022-12-29T09:26:52;13.57;;;2.13;;
22764;SDS011;11549;50.852;3.816;2022-12-29T09:29:20;18.63;;;3.00;;
22764;SDS011;11549;50.852;3.816;2022-12-29T09:31:49;16.63;;;2.80;;
22764;SDS011;11549;50.852;3.816;2022-12-29T09:34:17;17.45;;;2.78;;
22764;SDS011;11549;50.852;3.816;2022-12-29T09:36:46;11.25;;;2.63;;
22764;SDS011;11549;50.852;3.816;2022-12-29T09:39:14;17.30;;;2.55;;
22764;SDS011;11549;50.852;3.816;2022-12-29T09:41:45;15.07;;;2.78;;
22764;SDS011;11549;50.852;3.816;2022-12-29T09:44:21;16.48;;;2.67;;
22764;SDS011;11549;50.852;3.816;2022-12-29T09:46:57;17.17;;;2.63;;
22764;SDS011;11549;50.852;3.816;2022-12-29T09:49:28;19.20;;;3.13;;
22764;SDS011;11549;50.852;3.816;2022-12-29T09:52:06;20.88;;;2.63;;
22764;SDS011;11549;50.852;3.816;2022-12-29T09:54:45;20.63;;;3.15;;
22764;SDS011;11549;50.852;3.816;2022-12-29T09:57:29;15.52;;;2.83;;
22764;SDS011;11549;50.852;3.816;2022-12-29T10:00:03;16.52;;;2.85;;
22764;SDS011;11549;50.852;3.816;2022-12-29T10:02:36;16.80;;;2.75;;
22764;SDS011;11549;50.852;3.816;2022-12-29T10:05:16;14.90;;;2.58;;
22764;SDS011;11549;50.852;3.816;2022-12-29T10:07:52;20.60;;;3.07;;
22764;SDS011;11549;50.852;3.816;2022-12-29T10:10:31;15.10;;;3.10;;
22764;SDS011;11549;50.852;3.816;2022-12-29T10:13:19;17.10;;;3.40;;
22764;SDS011;11549;50.852;3.816;2022-12-29T10:15:59;14.32;;;3.22;;
22764;SDS011;11549;50.852;3.816;2022-12-29T10:18:38;15.88;;;2.50;;
22764;SDS011;11549;50.852;3.816;2022-12-29T10:21:25;17.83;;;2.42;;
22764;SDS011;11549;50.852;3.816;2022-12-29T10:23:59;12.75;;;2.53;;
22764;SDS011;11549;50.852;3.816;2022-12-29T10:26:33;12.82;;;2.60;;
22764;SDS011;11549;50.852;3.816;2022-12-29T10:29:12;14.35;;;2.65;;
22764;SDS011;11549;50.852;3.816;2022-12-29T10:31:44;14.45;;;3.05;;
22764;SDS011;11549;50.852;3.816;2022-12-29T10:34:16;12.50;;;2.33;;
22764;SDS011;11549;50.852;3.816;2022-12-29T10:36:49;12.75;;;2.58;;
22764;SDS011;11549;50.852;3.816;2022-12-29T10:39:23;12.15;;;1.95;;
22764;SDS011;11549;50.852;3.816;2022-12-29T10:41:59;14.60;;;3.03;;
22764;SDS011;11549;50.852;3.816;2022-12-29T10:44:37;16.77;;;2.88;;
22764;SDS011;11549;50.852;3.816;2022-12-29T10:47:07;15.63;;;3.00;;
22764;SDS011;11549;50.852;3.816;2022-12-29T10:49:42;18.73;;;3.10;;
22764;SDS011;11549;50.852;3.816;2022-12-29T10:52:14;14.93;;;2.63;;
22764;SDS011;11549;50.852;3.816;2022-12-29T10:54:45;13.98;;;2.80;;
22764;SDS011;11549;50.852;3.816;2022-12-29T10:57:22;12.13;;;2.47;;
22764;SDS011;11549;50.852;3.816;2022-12-29T10:59:55;11.32;;;2.13;;
22764;SDS011;11549;50.852;3.816;2022-12-29T11:02:43;12.82;;;2.53;;
22764;SDS011;11549;50.852;3.816;2022-12-29T11:05:31;15.05;;;2.30;;
22764;SDS011;11549;50.852;3.816;2022-12-29T11:08:04;10.20;;;1.80;;
22764;SDS011;11549;50.852;3.816;2022-12-29T11:10:38;8.93;;;1.95;;
22764;SDS011;11549;50.852;3.816;2022-12-29T11:13:11;15.55;;;2.78;;
22764;SDS011;11549;50.852;3.816;2022-12-29T11:15:43;13.07;;;2.45;;
22764;SDS011;11549;50.852;3.816;2022-12-29T11:18:20;16.15;;;2.63;;
22764;SDS011;11549;50.852;3.816;2022-12-29T11:20:51;17.42;;;3.08;;
22764;SDS011;11549;50.852;3.816;2022-12-29T11:23:27;12.63;;;2.60;;
22764;SDS011;11549;50.852;3.816;2022-12-29T11:26:13;15.15;;;2.45;;
22764;SDS011;11549;50.852;3.816;2022-12-29T11:28:44;20.80;;;2.75;;
22764;SDS011;11549;50.852;3.816;2022-12-29T11:31:17;15.68;;;2.53;;
22764;SDS011;11549;50.852;3.816;2022-12-29T11:33:49;17.85;;;3.08;;
22764;SDS011;11549;50.852;3.816;2022-12-29T11:36:19;11.25;;;2.40;;
22764;SDS011;11549;50.852;3.816;2022-12-29T11:38:50;14.68;;;2.72;;
22764;SDS011;11549;50.852;3.816;2022-12-29T11:41:21;14.23;;;2.88;;
22764;SDS011;11549;50.852;3.816;2022-12-29T11:43:51;14.00;;;2.47;;
22764;SDS011;11549;50.852;3.816;2022-12-29T11:46:24;13.70;;;2.47;;
22764;SDS011;11549;50.852;3.816;2022-12-29T11:48:54;14.32;;;2.78;;
22764;SDS011;11549;50.852;3.816;2022-12-29T11:51:27;15.32;;;2.75;;
22764;SDS011;11549;50.852;3.816;2022-12-29T11:53:58;13.57;;;2.75;;
22764;SDS011;11549;50.852;3.816;2022-12-29T11:56:35;13.73;;;2.60;;
22764;SDS011;11549;50.852;3.816;2022-12-29T12:05:11;10.82;;;2.22;;
22764;SDS011;11549;50.852;3.816;2022-12-29T12:07:45;15.38;;;2.63;;
22764;SDS011;11549;50.852;3.816;2022-12-29T12:10:18;12.32;;;2.22;;
22764;SDS011;11549;50.852;3.816;2022-12-29T12:12:52;14.75;;;2.40;;
22764;SDS011;11549;50.852;3.816;2022-12-29T12:15:27;13.60;;;2.30;;
22764;SDS011;11549;50.852;3.816;2022-12-29T12:18:02;13.65;;;2.60;;
22764;SDS011;11549;50.852;3.816;2022-12-29T12:20:38;9.90;;;2.22;;
22764;SDS011;11549;50.852;3.816;2022-12-29T12:23:14;15.93;;;3.05;;
22764;SDS011;11549;50.852;3.816;2022-12-29T12:25:57;14.90;;;2.65;;
22764;SDS011;11549;50.852;3.816;2022-12-29T12:28:36;17.08;;;2.58;;
22764;SDS011;11549;50.852;3.816;2022-12-29T12:31:13;11.85;;;2.60;;
22764;SDS011;11549;50.852;3.816;2022-12-29T12:33:53;12.30;;;2.30;;
22764;SDS011;11549;50.852;3.816;2022-12-29T12:36:29;12.05;;;2.50;;
22764;SDS011;11549;50.852;3.816;2022-12-29T12:39:18;11.10;;;2.17;;
22764;SDS011;11549;50.852;3.816;2022-12-29T12:41:56;10.05;;;1.90;;
22764;SDS011;11549;50.852;3.816;2022-12-29T12:44:36;12.20;;;2.22;;
22764;SDS011;11549;50.852;3.816;2022-12-29T12:47:19;13.23;;;2.47;;
22764;SDS011;11549;50.852;3.816;2022-12-29T12:56:06;13.98;;;2.63;;
22764;SDS011;11549;50.852;3.816;2022-12-29T12:58:59;12.88;;;2.38;;
22764;SDS011;11549;50.852;3.816;2022-12-29T13:01:38;10.35;;;1.90;;
22764;SDS011;11549;50.852;3.816;2022-12-29T13:07:12;11.50;;;1.92;;
22764;SDS011;11549;50.852;3.816;2022-12-29T13:09:50;6.65;;;1.55;;
22764;SDS011;11549;50.852;3.816;2022-12-29T13:12:40;9.80;;;1.25;;
22764;SDS011;11549;50.852;3.816;2022-12-29T13:15:21;7.43;;;1.35;;
22764;SDS011;11549;50.852;3.816;2022-12-29T13:18:03;9.43;;;1.77;;
22764;SDS011;11549;50.852;3.816;2022-12-29T13:20:38;9.38;;;2.35;;
22764;SDS011;11549;50.852;3.816;2022-12-29T13:23:16;7.95;;;1.70;;
22764;SDS011;11549;50.852;3.816;2022-12-29T13:25:54;12.45;;;1.50;;
22764;SDS011;11549;50.852;3.816;2022-12-29T13:28:29;7.30;;;1.52;;
22764;SDS011;11549;50.852;3.816;2022-12-29T13:31:04;8.52;;;1.75;;
22764;SDS011;11549;50.852;3.816;2022-12-29T13:33:39;9.80;;;1.90;;
22764;SDS011;11549;50.852;3.816;2022-12-29T13:36:18;12.68;;;2.20;;
22764;SDS011;11549;50.852;3.816;2022-12-29T13:38:53;13.23;;;2.72;;
22764;SDS011;11549;50.852;3.816;2022-12-29T13:41:30;8.73;;;1.90;;
22764;SDS011;11549;50.852;3.816;2022-12-29T13:44:02;6.03;;;1.35;;
22764;SDS011;11549;50.852;3.816;2022-12-29T13:46:33;6.35;;;0.90;;
22764;SDS011;11549;50.852;3.816;2022-12-29T13:49:06;5.13;;;0.88;;
22764;SDS011;11549;50.852;3.816;2022-12-29T13:51:40;5.85;;;0.75;;
22764;SDS011;11549;50.852;3.816;2022-12-29T13:54:14;2.85;;;0.70;;
22764;SDS011;11549;50.852;3.816;2022-12-29T13:56:52;7.00;;;1.02;;
22764;SDS011;11549;50.852;3.816;2022-12-29T13:59:33;4.45;;;0.75;;
22764;SDS011;11549;50.852;3.816;2022-12-29T14:02:12;4.82;;;0.70;;
22764;SDS011;11549;50.852;3.816;2022-12-29T14:04:57;6.25;;;0.93;;
22764;SDS011;11549;50.852;3.816;2022-12-29T14:07:27;4.43;;;0.77;;
22764;SDS011;11549;50.852;3.816;2022-12-29T14:09:58;4.80;;;1.08;;
22764;SDS011;11549;50.852;3.816;2022-12-29T14:12:30;7.68;;;1.25;;
22764;SDS011;11549;50.852;3.816;2022-12-29T14:15:04;7.80;;;1.30;;
22764;SDS011;11549;50.852;3.816;2022-12-29T14:17:35;6.03;;;1.10;;
22764;SDS011;11549;50.852;3.816;2022-12-29T14:20:04;9.00;;;1.48;;
22764;SDS011;11549;50.852;3.816;2022-12-29T14:22:54;7.15;;;1.40;;
22764;SDS011;11549;50.852;3.816;2022-12-29T14:28:25;8.73;;;1.38;;
22764;SDS011;11549;50.852;3.816;2022-12-29T14:30:55;9.00;;;1.63;;
22764;SDS011;11549;50.852;3.816;2022-12-29T14:33:25;10.48;;;1.63;;
22764;SDS011;11549;50.852;3.816;2022-12-29T14:35:55;8.77;;;1.58;;
22764;SDS011;11549;50.852;3.816;2022-12-29T14:38:25;8.70;;;1.60;;
22764;SDS011;11549;50.852;3.816;2022-12-29T14:43:58;8.35;;;1.63;;
22764;SDS011;11549;50.852;3.816;2022-12-29T14:46:46;9.25;;;1.38;;
22764;SDS011;11549;50.852;3.816;2022-12-29T14:49:24;10.67;;;1.83;;
22764;SDS011;11549;50.852;3.816;2022-12-29T14:52:03;11.10;;;1.60;;
22764;SDS011;11549;50.852;3.816;2022-12-29T14:54:34;12.45;;;2.13;;
22764;SDS011;11549;50.852;3.816;2022-12-29T14:57:21;11.50;;;1.60;;
22764;SDS011;11549;50.852;3.816;2022-12-29T15:00:02;8.40;;;1.85;;
22764;SDS011;11549;50.852;3.816;2022-12-29T15:02:37;8.93;;;1.80;;
22764;SDS011;11549;50.852;3.816;2022-12-29T15:05:20;9.38;;;2.15;;
22764;SDS011;11549;50.852;3.816;2022-12-29T15:07:57;11.02;;;2.40;;
22764;SDS011;11549;50.852;3.816;2022-12-29T15:10:26;11.07;;;1.90;;
22764;SDS011;11549;50.852;3.816;2022-12-29T15:13:05;11.48;;;2.45;;
22764;SDS011;11549;50.852;3.816;2022-12-29T15:15:43;13.65;;;2.00;;
22764;SDS011;11549;50.852;3.816;2022-12-29T15:18:18;10.35;;;1.95;;
22764;SDS011;11549;50.852;3.816;2022-12-29T15:20:51;10.75;;;1.85;;
22764;SDS011;11549;50.852;3.816;2022-12-29T15:23:22;11.07;;;2.10;;
22764;SDS011;11549;50.852;3.816;2022-12-29T15:25:53;10.07;;;1.83;;
22764;SDS011;11549;50.852;3.816;2022-12-29T15:28:25;12.50;;;1.80;;
22764;SDS011;11549;50.852;3.816;2022-12-29T15:30:55;11.27;;;1.52;;
22764;SDS011;11549;50.852;3.816;2022-12-29T15:33:28;7.07;;;1.33;;
22764;SDS011;11549;50.852;3.816;2022-12-29T15:36:02;10.55;;;1.90;;
22764;SDS011;11549;50.852;3.816;2022-12-29T15:38:31;13.23;;;2.38;;
22764;SDS011;11549;50.852;3.816;2022-12-29T15:41:08;9.15;;;1.80;;
22764;SDS011;11549;50.852;3.816;2022-12-29T15:43:54;11.68;;;2.00;;